Jamestown, North Dakota
Current Conditions -  °F | °C
As of 3:56 AM on Thursday 27 Nov 2014 (Local Time) from KJMS Reporting Station
Clear Clear  
Wind Chill: -26°   Ceiling: Unl
Heat Index: -26°   Visibility: 10mi
Dew Point: -30°   Wind: 0mph
Humidity: 81%   Direction: NA
Pressure: 30.46"   Gusts: NA
Location:  46.91°N, 98.71°W
Report Text: KJMS 270956Z AUTO 00000KT 10SM CLR M32/M34 A3046 RMK AO2 SLP371 T13221344
Loading
Personal Weather Stations






























Interactive Weather Map New forecast layout! Learn more

10-Day Weather Forecast

Advertisements
Track Severe Weather on mobile